Nova Cantu, Brazil
Current Conditions -  °F | °C
As of 9:00 PM on Friday 19 Dec 2014 (Local Time) from SBCA Reporting Station
Few Clouds Few Clouds  
Wind Chill: 73°   Ceiling: Unl
Heat Index: 73°   Visibility: 6mi
Dew Point: 55°   Wind: 14mph
Humidity: 53%   Direction: 170°S
Pressure: 29.8"   Gusts: NA
Location:  24.67°S, 52.57°W
Report Text: SBCA 192300Z 17012KT 9999 FEW030 23/13 Q1009
Loading
Personal Weather Stations






























Interactive Weather Map New forecast layout! Learn more

10-Day Weather Forecast

Advertisements
Track Severe Weather on mobile